sensor_id;sensor_type;location;lat;lon;timestamp;pressure;altitude;pressure_sealevel;temperature;humidity
46476;BME280;53376;51.114;14.738;2022-07-29T00:02:14;98628.19;;;24.83;30.94
46476;BME280;53376;51.114;14.738;2022-07-29T00:04:54;98630.22;;;24.81;31.35
46476;BME280;53376;51.114;14.738;2022-07-29T00:07:34;98631.63;;;24.77;31.50
46476;BME280;53376;51.114;14.738;2022-07-29T00:10:02;98621.28;;;24.72;31.21
46476;BME280;53376;51.114;14.738;2022-07-29T00:12:43;98620.44;;;24.72;31.74
46476;BME280;53376;51.114;14.738;2022-07-29T00:15:11;98620.78;;;24.69;31.73
46476;BME280;53376;51.114;14.738;2022-07-29T00:28:33;98597.41;;;24.51;32.13
46476;BME280;53376;51.114;14.738;2022-07-29T00:31:14;98590.28;;;24.50;31.76
46476;BME280;53376;51.114;14.738;2022-07-29T00:33:42;98592.19;;;24.50;32.01
46476;BME280;53376;51.114;14.738;2022-07-29T00:36:22;98594.06;;;24.49;32.22
46476;BME280;53376;51.114;14.738;2022-07-29T00:38:51;98589.47;;;24.50;32.23
46476;BME280;53376;51.114;14.738;2022-07-29T00:41:31;98581.50;;;24.48;32.31
46476;BME280;53376;51.114;14.738;2022-07-29T00:44:02;98581.84;;;24.45;32.21
46476;BME280;53376;51.114;14.738;2022-07-29T00:57:12;98566.97;;;24.33;32.32
46476;BME280;53376;51.114;14.738;2022-07-29T00:59:55;98569.03;;;24.30;32.49
46476;BME280;53376;51.114;14.738;2022-07-29T01:02:22;98559.19;;;24.29;32.51
46476;BME280;53376;51.114;14.738;2022-07-29T01:05:04;98550.56;;;24.26;32.22
46476;BME280;53376;51.114;14.738;2022-07-29T01:07:40;98555.97;;;24.26;32.77
46476;BME280;53376;51.114;14.738;2022-07-29T01:10:23;98551.75;;;24.23;32.28
46476;BME280;53376;51.114;14.738;2022-07-29T01:27:38;98543.34;;;24.10;32.50
46476;BME280;53376;51.114;14.738;2022-07-29T01:34:19;98548.78;;;24.02;33.13
46476;BME280;53376;51.114;14.738;2022-07-29T01:51:06;98518.78;;;23.87;32.90
46476;BME280;53376;51.114;14.738;2022-07-29T01:53:54;98521.69;;;23.85;33.23
46476;BME280;53376;51.114;14.738;2022-07-29T01:56:39;98522.03;;;23.82;33.33
46476;BME280;53376;51.114;14.738;2022-07-29T01:59:23;98536.63;;;23.81;33.37
46476;BME280;53376;51.114;14.738;2022-07-29T02:02:06;98533.25;;;23.79;33.46
46476;BME280;53376;51.114;14.738;2022-07-29T02:04:44;98530.88;;;23.76;33.51
46476;BME280;53376;51.114;14.738;2022-07-29T02:17:06;98520.41;;;23.64;33.57
46476;BME280;53376;51.114;14.738;2022-07-29T02:19:44;98516.16;;;23.62;33.43
46476;BME280;53376;51.114;14.738;2022-07-29T02:22:15;98520.91;;;23.60;33.86
46476;BME280;53376;51.114;14.738;2022-07-29T02:24:58;98513.97;;;23.57;33.93
46476;BME280;53376;51.114;14.738;2022-07-29T02:27:35;98516.03;;;23.55;33.69
46476;BME280;53376;51.114;14.738;2022-07-29T02:30:15;98516.34;;;23.52;33.88
46476;BME280;53376;51.114;14.738;2022-07-29T02:46:46;98525.56;;;23.34;34.04
46476;BME280;53376;51.114;14.738;2022-07-29T02:49:36;98529.28;;;23.33;34.41
46476;BME280;53376;51.114;14.738;2022-07-29T02:52:18;98521.31;;;23.32;34.22
46476;BME280;53376;51.114;14.738;2022-07-29T02:55:02;98528.28;;;23.26;34.66
46476;BME280;53376;51.114;14.738;2022-07-29T03:11:27;98524.19;;;23.14;34.41
46476;BME280;53376;51.114;14.738;2022-07-29T03:14:23;98519.13;;;23.11;34.45
46476;BME280;53376;51.114;14.738;2022-07-29T03:16:52;98525.88;;;23.07;34.58
46476;BME280;53376;51.114;14.738;2022-07-29T03:19:32;98526.06;;;23.05;35.05
46476;BME280;53376;51.114;14.738;2022-07-29T03:21:59;98519.97;;;23.03;35.10
46476;BME280;53376;51.114;14.738;2022-07-29T03:24:40;98520.13;;;23.01;34.83
46476;BME280;53376;51.114;14.738;2022-07-29T03:36:34;98524.19;;;22.89;35.60
46476;BME280;53376;51.114;14.738;2022-07-29T03:39:19;98518.13;;;22.87;35.32
46476;BME280;53376;51.114;14.738;2022-07-29T03:42:04;98519.31;;;22.84;35.25
46476;BME280;53376;51.114;14.738;2022-07-29T03:44:44;98511.50;;;22.81;35.80
46476;BME280;53376;51.114;14.738;2022-07-29T03:47:30;98516.22;;;22.79;35.60
46476;BME280;53376;51.114;14.738;2022-07-29T03:50:23;98511.16;;;22.76;35.19
46476;BME280;53376;51.114;14.738;2022-07-29T04:03:35;98521.13;;;22.76;35.83
46476;BME280;53376;51.114;14.738;2022-07-29T04:06:15;98521.50;;;22.73;35.68
46476;BME280;53376;51.114;14.738;2022-07-29T04:08:42;98519.78;;;22.72;35.94
46476;BME280;53376;51.114;14.738;2022-07-29T04:11:22;98521.81;;;22.69;36.00
46476;BME280;53376;51.114;14.738;2022-07-29T04:13:51;98526.56;;;22.67;36.50
46476;BME280;53376;51.114;14.738;2022-07-29T04:30:27;98504.56;;;22.62;36.17
46476;BME280;53376;51.114;14.738;2022-07-29T04:33:08;98512.00;;;22.60;36.57
46476;BME280;53376;51.114;14.738;2022-07-29T04:35:48;98514.72;;;22.60;36.49
46476;BME280;53376;51.114;14.738;2022-07-29T04:38:25;98516.59;;;22.60;36.59
46476;BME280;53376;51.114;14.738;2022-07-29T04:41:05;98519.13;;;22.61;37.27
46476;BME280;53376;51.114;14.738;2022-07-29T04:43:32;98511.16;;;22.60;37.14
46476;BME280;53376;51.114;14.738;2022-07-29T04:46:14;98521.13;;;22.59;37.59
46476;BME280;53376;51.114;14.738;2022-07-29T04:58:42;98512.19;;;22.59;38.11
46476;BME280;53376;51.114;14.738;2022-07-29T05:01:09;98507.41;;;22.61;38.20
46476;BME280;53376;51.114;14.738;2022-07-29T05:03:51;98514.72;;;22.60;38.40
46476;BME280;53376;51.114;14.738;2022-07-29T05:06:32;98519.63;;;22.65;38.90
46476;BME280;53376;51.114;14.738;2022-07-29T05:09:12;98513.19;;;22.66;38.95
46476;BME280;53376;51.114;14.738;2022-07-29T05:25:21;98518.75;;;22.64;39.00
46476;BME280;53376;51.114;14.738;2022-07-29T05:27:59;98521.66;;;22.63;39.12
46476;BME280;53376;51.114;14.738;2022-07-29T05:30:26;98525.53;;;22.60;39.35
46476;BME280;53376;51.114;14.738;2022-07-29T05:33:00;98528.25;;;22.60;39.33
46476;BME280;53376;51.114;14.738;2022-07-29T05:36:00;98522.81;;;22.60;39.34
46476;BME280;53376;51.114;14.738;2022-07-29T05:52:09;98527.56;;;22.58;39.44
46476;BME280;53376;51.114;14.738;2022-07-29T05:54:52;98528.41;;;22.59;39.28
46476;BME280;53376;51.114;14.738;2022-07-29T05:57:21;98527.41;;;22.60;38.88
46476;BME280;53376;51.114;14.738;2022-07-29T06:00:04;98533.84;;;22.59;39.45
46476;BME280;53376;51.114;14.738;2022-07-29T06:02:38;98525.72;;;22.59;39.32
46476;BME280;53376;51.114;14.738;2022-07-29T06:05:20;98523.16;;;22.57;38.94
46476;BME280;53376;51.114;14.738;2022-07-29T06:18:03;98523.16;;;22.65;39.38
46476;BME280;53376;51.114;14.738;2022-07-29T06:20:44;98530.09;;;22.68;39.13
46476;BME280;53376;51.114;14.738;2022-07-29T06:23:24;98529.78;;;22.71;39.16
46476;BME280;53376;51.114;14.738;2022-07-29T06:25:51;98532.16;;;22.74;39.15
46476;BME280;53376;51.114;14.738;2022-07-29T06:28:31;98532.84;;;22.76;39.49
46476;BME280;53376;51.114;14.738;2022-07-29T06:30:59;98532.34;;;22.81;39.10
46476;BME280;53376;51.114;14.738;2022-07-29T06:44:14;98540.44;;;22.89;39.91
46476;BME280;53376;51.114;14.738;2022-07-29T06:46:54;98536.22;;;22.95;39.83
46476;BME280;53376;51.114;14.738;2022-07-29T06:49:21;98538.06;;;22.94;39.64
46476;BME280;53376;51.114;14.738;2022-07-29T06:52:01;98541.47;;;22.96;39.66
46476;BME280;53376;51.114;14.738;2022-07-29T06:54:29;98542.16;;;22.98;40.00
46476;BME280;53376;51.114;14.738;2022-07-29T07:11:09;98536.03;;;23.54;39.34
46476;BME280;53376;51.114;14.738;2022-07-29T07:13:49;98533.97;;;23.56;39.21
46476;BME280;53376;51.114;14.738;2022-07-29T07:16:36;98538.03;;;23.60;39.43
46476;BME280;53376;51.114;14.738;2022-07-29T07:19:03;98534.97;;;23.63;39.62
46476;BME280;53376;51.114;14.738;2022-07-29T07:21:46;98530.91;;;23.67;39.53
46476;BME280;53376;51.114;14.738;2022-07-29T07:24:13;98530.72;;;23.69;39.24
46476;BME280;53376;51.114;14.738;2022-07-29T07:37:25;98530.50;;;23.95;39.58
46476;BME280;53376;51.114;14.738;2022-07-29T07:40:06;98520.81;;;24.01;38.70
46476;BME280;53376;51.114;14.738;2022-07-29T07:42:35;98533.84;;;24.06;39.14
46476;BME280;53376;51.114;14.738;2022-07-29T07:45:15;98529.06;;;24.08;39.05
46476;BME280;53376;51.114;14.738;2022-07-29T07:47:43;98530.59;;;24.10;39.47
46476;BME280;53376;51.114;14.738;2022-07-29T07:50:23;98531.09;;;24.14;39.22
46476;BME280;53376;51.114;14.738;2022-07-29T08:03:22;98541.16;;;24.37;38.35
46476;BME280;53376;51.114;14.738;2022-07-29T08:06:03;98537.91;;;24.41;38.44
46476;BME280;53376;51.114;14.738;2022-07-29T08:08:43;98539.25;;;24.45;38.79
46476;BME280;53376;51.114;14.738;2022-07-29T08:11:10;98537.66;;;24.51;39.21
46476;BME280;53376;51.114;14.738;2022-07-29T08:13:50;98537.44;;;24.61;39.00
46476;BME280;53376;51.114;14.738;2022-07-29T08:16:17;98535.53;;;24.70;39.25
46476;BME280;53376;51.114;14.738;2022-07-29T08:18:59;98539.91;;;24.79;39.03
46476;BME280;53376;51.114;14.738;2022-07-29T08:21:26;98537.44;;;24.92;38.55
46476;BME280;53376;51.114;14.738;2022-07-29T08:31:18;98528.22;;;25.32;39.17
46476;BME280;53376;51.114;14.738;2022-07-29T08:34:00;98523.78;;;25.39;38.77
46476;BME280;53376;51.114;14.738;2022-07-29T08:36:40;98517.59;;;25.45;37.41
46476;BME280;53376;51.114;14.738;2022-07-29T08:39:14;98519.75;;;25.50;37.08
46476;BME280;53376;51.114;14.738;2022-07-29T08:41:54;98518.63;;;25.59;37.41
46476;BME280;53376;51.114;14.738;2022-07-29T08:44:23;98517.03;;;25.65;37.11
46476;BME280;53376;51.114;14.738;2022-07-29T08:57:37;98509.56;;;26.33;36.65
46476;BME280;53376;51.114;14.738;2022-07-29T09:00:28;98509.72;;;26.47;37.01
46476;BME280;53376;51.114;14.738;2022-07-29T09:02:57;98514.47;;;26.60;35.88
46476;BME280;53376;51.114;14.738;2022-07-29T09:05:41;98508.88;;;26.68;34.69
46476;BME280;53376;51.114;14.738;2022-07-29T09:08:21;98514.91;;;26.78;35.96
46476;BME280;53376;51.114;14.738;2022-07-29T09:11:02;98511.38;;;26.84;34.82
46476;BME280;53376;51.114;14.738;2022-07-29T09:24:06;98504.63;;;27.02;34.72
46476;BME280;53376;51.114;14.738;2022-07-29T09:26:47;98509.03;;;27.03;34.21
46476;BME280;53376;51.114;14.738;2022-07-29T09:29:28;98501.88;;;27.02;34.41
46476;BME280;53376;51.114;14.738;2022-07-29T09:32:09;98495.78;;;27.00;34.40
46476;BME280;53376;51.114;14.738;2022-07-29T09:34:49;98501.03;;;27.01;34.55
46476;BME280;53376;51.114;14.738;2022-07-29T09:37:26;98491.34;;;26.99;33.84
46476;BME280;53376;51.114;14.738;2022-07-29T09:40:14;98501.44;;;26.98;34.48
46476;BME280;53376;51.114;14.738;2022-07-29T09:52:58;98499.09;;;26.95;34.41
46476;BME280;53376;51.114;14.738;2022-07-29T09:55:28;98503.50;;;26.96;34.83
46476;BME280;53376;51.114;14.738;2022-07-29T09:58:16;98509.81;;;26.97;34.17
46476;BME280;53376;51.114;14.738;2022-07-29T10:00:52;98506.06;;;26.98;34.40
46476;BME280;53376;51.114;14.738;2022-07-29T10:03:50;98498.50;;;27.00;34.33
46476;BME280;53376;51.114;14.738;2022-07-29T10:06:24;98497.09;;;27.04;34.12
46476;BME280;53376;51.114;14.738;2022-07-29T10:19:47;98498.31;;;27.30;34.01
46476;BME280;53376;51.114;14.738;2022-07-29T10:22:27;98497.06;;;27.32;32.36
46476;BME280;53376;51.114;14.738;2022-07-29T10:25:23;98493.72;;;27.30;32.42
46476;BME280;53376;51.114;14.738;2022-07-29T10:28:06;98498.75;;;27.33;32.21
46476;BME280;53376;51.114;14.738;2022-07-29T10:30:38;98495.84;;;27.35;31.16
46476;BME280;53376;51.114;14.738;2022-07-29T10:43:52;98480.88;;;27.53;32.98
46476;BME280;53376;51.114;14.738;2022-07-29T10:46:35;98480.09;;;27.59;32.69
46476;BME280;53376;51.114;14.738;2022-07-29T10:49:13;98482.41;;;27.62;32.04
46476;BME280;53376;51.114;14.738;2022-07-29T10:52:06;98466.66;;;27.64;32.28
46476;BME280;53376;51.114;14.738;2022-07-29T10:54:43;98466.66;;;27.64;32.25
46476;BME280;53376;51.114;14.738;2022-07-29T10:57:30;98477.59;;;27.64;31.58
46476;BME280;53376;51.114;14.738;2022-07-29T11:00:33;98471.72;;;27.67;31.58
46476;BME280;53376;51.114;14.738;2022-07-29T11:10:33;98471.31;;;27.70;30.79
46476;BME280;53376;51.114;14.738;2022-07-29T11:13:46;98478.03;;;27.74;31.78
46476;BME280;53376;51.114;14.738;2022-07-29T11:17:00;98477.44;;;27.72;30.88
46476;BME280;53376;51.114;14.738;2022-07-29T11:19:34;98485.19;;;27.75;31.44
46476;BME280;53376;51.114;14.738;2022-07-29T11:22:32;98481.00;;;27.79;31.08
46476;BME280;53376;51.114;14.738;2022-07-29T11:25:17;98485.25;;;27.89;32.02
46476;BME280;53376;51.114;14.738;2022-07-29T11:38:49;98467.94;;;28.10;31.21
46476;BME280;53376;51.114;14.738;2022-07-29T11:41:29;98468.16;;;28.15;32.13
46476;BME280;53376;51.114;14.738;2022-07-29T11:43:59;98465.47;;;28.22;33.05
46476;BME280;53376;51.114;14.738;2022-07-29T11:46:44;98470.72;;;28.30;33.15
46476;BME280;53376;51.114;14.738;2022-07-29T11:49:20;98467.81;;;28.38;33.45
46476;BME280;53376;51.114;14.738;2022-07-29T12:06:18;98461.59;;;28.85;31.70
46476;BME280;53376;51.114;14.738;2022-07-29T12:08:59;98461.19;;;28.88;30.89
46476;BME280;53376;51.114;14.738;2022-07-29T12:11:47;98456.97;;;28.92;31.00
46476;BME280;53376;51.114;14.738;2022-07-29T12:14:27;98456.56;;;28.95;31.24
46476;BME280;53376;51.114;14.738;2022-07-29T12:17:25;98452.13;;;28.94;30.94
46476;BME280;53376;51.114;14.738;2022-07-29T12:20:05;98448.34;;;28.95;32.08
46476;BME280;53376;51.114;14.738;2022-07-29T12:33:20;98438.69;;;29.06;32.13
46476;BME280;53376;51.114;14.738;2022-07-29T12:36:01;98445.63;;;29.08;32.19
46476;BME280;53376;51.114;14.738;2022-07-29T12:38:50;98451.50;;;29.05;31.08
46476;BME280;53376;51.114;14.738;2022-07-29T12:41:30;98445.19;;;29.05;30.98
46476;BME280;53376;51.114;14.738;2022-07-29T12:43:58;98437.59;;;29.07;31.33
46476;BME280;53376;51.114;14.738;2022-07-29T12:46:37;98433.81;;;29.08;31.25
46476;BME280;53376;51.114;14.738;2022-07-29T12:58:32;98440.56;;;29.05;31.02
46476;BME280;53376;51.114;14.738;2022-07-29T13:01:15;98443.94;;;29.07;32.51
46476;BME280;53376;51.114;14.738;2022-07-29T13:03:57;98435.06;;;29.05;31.45
46476;BME280;53376;51.114;14.738;2022-07-29T13:06:37;98437.00;;;29.05;31.72
46476;BME280;53376;51.114;14.738;2022-07-29T13:09:23;98427.91;;;29.04;31.59
46476;BME280;53376;51.114;14.738;2022-07-29T13:25:51;98416.56;;;29.07;31.81
46476;BME280;53376;51.114;14.738;2022-07-29T13:28:34;98421.41;;;29.05;31.15
46476;BME280;53376;51.114;14.738;2022-07-29T13:31:08;98416.78;;;29.06;31.23
46476;BME280;53376;51.114;14.738;2022-07-29T13:33:53;98417.63;;;29.06;30.85
46476;BME280;53376;51.114;14.738;2022-07-29T13:36:20;98413.63;;;29.09;31.16
46476;BME280;53376;51.114;14.738;2022-07-29T13:39:01;98419.50;;;29.13;30.59
46476;BME280;53376;51.114;14.738;2022-07-29T13:41:33;98408.16;;;29.16;30.22
46476;BME280;53376;51.114;14.738;2022-07-29T13:51:24;98409.19;;;29.28;31.46
46476;BME280;53376;51.114;14.738;2022-07-29T13:54:06;98403.94;;;29.33;31.57
46476;BME280;53376;51.114;14.738;2022-07-29T13:56:54;98406.44;;;29.35;30.48
46476;BME280;53376;51.114;14.738;2022-07-29T13:59:28;98406.84;;;29.38;30.82
46476;BME280;53376;51.114;14.738;2022-07-29T14:02:10;98404.94;;;29.46;30.88
46476;BME280;53376;51.114;14.738;2022-07-29T14:04:38;98403.44;;;29.50;30.52
46476;BME280;53376;51.114;14.738;2022-07-29T14:17:52;98387.81;;;29.64;30.28
46476;BME280;53376;51.114;14.738;2022-07-29T14:20:34;98389.28;;;29.66;30.87
46476;BME280;53376;51.114;14.738;2022-07-29T14:23:01;98389.47;;;29.71;30.39
46476;BME280;53376;51.114;14.738;2022-07-29T14:25:41;98388.63;;;29.78;29.82
46476;BME280;53376;51.114;14.738;2022-07-29T14:28:10;98384.16;;;29.83;30.10
46476;BME280;53376;51.114;14.738;2022-07-29T14:30:50;98378.69;;;29.90;30.86
46476;BME280;53376;51.114;14.738;2022-07-29T14:46:59;98380.81;;;30.20;30.13
46476;BME280;53376;51.114;14.738;2022-07-29T14:49:40;98383.09;;;30.23;29.77
46476;BME280;53376;51.114;14.738;2022-07-29T14:52:07;98376.16;;;30.20;29.94
46476;BME280;53376;51.114;14.738;2022-07-29T14:54:47;98380.00;;;30.13;30.14
46476;BME280;53376;51.114;14.738;2022-07-29T14:57:14;98380.00;;;30.13;30.33
46476;BME280;53376;51.114;14.738;2022-07-29T14:59:54;98380.44;;;30.10;29.94
46476;BME280;53376;51.114;14.738;2022-07-29T15:12:38;98375.06;;;29.96;29.79
46476;BME280;53376;51.114;14.738;2022-07-29T15:15:18;98377.19;;;29.94;29.89
46476;BME280;53376;51.114;14.738;2022-07-29T15:17:58;98373.19;;;29.90;29.82
46476;BME280;53376;51.114;14.738;2022-07-29T15:20:26;98366.44;;;29.86;29.70
46476;BME280;53376;51.114;14.738;2022-07-29T15:23:09;98371.31;;;29.84;30.10
46476;BME280;53376;51.114;14.738;2022-07-29T15:25:37;98368.34;;;29.85;30.05
46476;BME280;53376;51.114;14.738;2022-07-29T15:38:51;98360.03;;;30.05;30.15
46476;BME280;53376;51.114;14.738;2022-07-29T15:41:33;98360.66;;;30.07;30.12
46476;BME280;53376;51.114;14.738;2022-07-29T15:44:00;98366.53;;;30.11;30.15
46476;BME280;53376;51.114;14.738;2022-07-29T15:46:40;98362.94;;;30.11;30.12
46476;BME280;53376;51.114;14.738;2022-07-29T15:49:08;98367.38;;;30.12;30.12
46476;BME280;53376;51.114;14.738;2022-07-29T16:05:45;98346.66;;;30.22;30.33
46476;BME280;53376;51.114;14.738;2022-07-29T16:08:25;98336.09;;;30.26;30.24
46476;BME280;53376;51.114;14.738;2022-07-29T16:11:05;98338.38;;;30.29;30.06
46476;BME280;53376;51.114;14.738;2022-07-29T16:13:33;98340.69;;;30.32;29.55
46476;BME280;53376;51.114;14.738;2022-07-29T16:16:13;98333.25;;;30.39;29.91
46476;BME280;53376;51.114;14.738;2022-07-29T16:18:41;98334.25;;;30.45;29.94
46476;BME280;53376;51.114;14.738;2022-07-29T16:21:22;98330.22;;;30.48;29.36
46476;BME280;53376;51.114;14.738;2022-07-29T16:34:01;98319.31;;;30.66;28.86
46476;BME280;53376;51.114;14.738;2022-07-29T16:36:30;98323.91;;;30.73;29.04
46476;BME280;53376;51.114;14.738;2022-07-29T16:39:04;98323.84;;;30.79;28.57
46476;BME280;53376;51.114;14.738;2022-07-29T16:41:44;98319.59;;;30.83;28.59
46476;BME280;53376;51.114;14.738;2022-07-29T16:44:12;98307.69;;;30.90;28.44
46476;BME280;53376;51.114;14.738;2022-07-29T17:00:46;98313.47;;;31.25;27.89
46476;BME280;53376;51.114;14.738;2022-07-29T17:03:13;98310.19;;;31.35;27.89
46476;BME280;53376;51.114;14.738;2022-07-29T17:05:48;98312.38;;;31.45;27.11
46476;BME280;53376;51.114;14.738;2022-07-29T17:08:27;98317.22;;;31.61;27.16
46476;BME280;53376;51.114;14.738;2022-07-29T17:11:01;98317.69;;;31.77;26.70
46476;BME280;53376;51.114;14.738;2022-07-29T17:27:40;98312.63;;;33.06;25.12
46476;BME280;53376;51.114;14.738;2022-07-29T17:30:08;98312.03;;;33.16;24.81
46476;BME280;53376;51.114;14.738;2022-07-29T17:32:49;98310.56;;;33.25;24.71
46476;BME280;53376;51.114;14.738;2022-07-29T17:35:16;98308.63;;;33.37;24.79
46476;BME280;53376;51.114;14.738;2022-07-29T17:37:56;98307.03;;;33.53;24.76
46476;BME280;53376;51.114;14.738;2022-07-29T17:40:24;98313.94;;;33.68;24.44
46476;BME280;53376;51.114;14.738;2022-07-29T17:53:35;98322.09;;;32.62;25.95
46476;BME280;53376;51.114;14.738;2022-07-29T17:56:16;98316.66;;;32.20;26.80
46476;BME280;53376;51.114;14.738;2022-07-29T17:58:43;98327.25;;;31.86;27.38
46476;BME280;53376;51.114;14.738;2022-07-29T18:01:27;98324.31;;;31.50;27.82
46476;BME280;53376;51.114;14.738;2022-07-29T18:03:55;98330.16;;;31.24;28.18
46476;BME280;53376;51.114;14.738;2022-07-29T18:06:34;98327.44;;;30.98;28.58
46476;BME280;53376;51.114;14.738;2022-07-29T18:19:18;98319.34;;;30.09;29.86
46476;BME280;53376;51.114;14.738;2022-07-29T18:21:58;98321.94;;;29.97;30.09
46476;BME280;53376;51.114;14.738;2022-07-29T18:24:38;98322.84;;;29.84;30.34
46476;BME280;53376;51.114;14.738;2022-07-29T18:27:06;98327.13;;;29.73;30.60
46476;BME280;53376;51.114;14.738;2022-07-29T18:29:48;98324.66;;;29.65;30.74
46476;BME280;53376;51.114;14.738;2022-07-29T18:32:17;98326.56;;;29.58;30.71
46476;BME280;53376;51.114;14.738;2022-07-29T18:35:05;98334.41;;;29.48;30.60
46476;BME280;53376;51.114;14.738;2022-07-29T18:48:01;98324.00;;;29.11;31.48
46476;BME280;53376;51.114;14.738;2022-07-29T18:50:30;98316.41;;;29.06;31.86
46476;BME280;53376;51.114;14.738;2022-07-29T18:53:10;98321.50;;;28.96;32.04
46476;BME280;53376;51.114;14.738;2022-07-29T18:55:37;98313.06;;;28.91;32.11
46476;BME280;53376;51.114;14.738;2022-07-29T18:58:17;98321.09;;;28.86;32.21
46476;BME280;53376;51.114;14.738;2022-07-29T19:00:44;98321.53;;;28.83;32.49
46476;BME280;53376;51.114;14.738;2022-07-29T19:13:56;98328.25;;;28.60;32.69
46476;BME280;53376;51.114;14.738;2022-07-29T19:16:36;98333.31;;;28.56;32.86
46476;BME280;53376;51.114;14.738;2022-07-29T19:19:04;98337.50;;;28.52;32.99
46476;BME280;53376;51.114;14.738;2022-07-29T19:21:43;98352.44;;;28.50;33.02
46476;BME280;53376;51.114;14.738;2022-07-29T19:24:11;98351.78;;;28.47;33.15
46476;BME280;53376;51.114;14.738;2022-07-29T19:26:50;98345.94;;;28.44;32.97
46476;BME280;53376;51.114;14.738;2022-07-29T19:40:24;98364.63;;;28.27;33.78
46476;BME280;53376;51.114;14.738;2022-07-29T19:43:05;98362.28;;;28.24;33.82
46476;BME280;53376;51.114;14.738;2022-07-29T19:46:05;98363.13;;;28.18;33.93
46476;BME280;53376;51.114;14.738;2022-07-29T19:48:39;98359.78;;;28.15;33.99
46476;BME280;53376;51.114;14.738;2022-07-29T19:51:19;98366.06;;;28.09;34.12
46476;BME280;53376;51.114;14.738;2022-07-29T19:53:47;98361.84;;;28.07;34.20
46476;BME280;53376;51.114;14.738;2022-07-29T19:56:29;98366.22;;;28.01;34.38
46476;BME280;53376;51.114;14.738;2022-07-29T20:05:46;98366.81;;;27.90;34.86
46476;BME280;53376;51.114;14.738;2022-07-29T20:08:26;98366.19;;;27.88;34.89
46476;BME280;53376;51.114;14.738;2022-07-29T20:10:54;98376.44;;;27.86;34.44
46476;BME280;53376;51.114;14.738;2022-07-29T20:13:35;98376.06;;;27.82;34.87
46476;BME280;53376;51.114;14.738;2022-07-29T20:16:03;98372.66;;;27.80;34.90
46476;BME280;53376;51.114;14.738;2022-07-29T20:18:43;98380.63;;;27.75;35.02
46476;BME280;53376;51.114;14.738;2022-07-29T20:21:11;98376.44;;;27.72;35.10
46476;BME280;53376;51.114;14.738;2022-07-29T20:34:22;98384.56;;;27.59;35.57
46476;BME280;53376;51.114;14.738;2022-07-29T20:37:04;98384.13;;;27.55;35.50
46476;BME280;53376;51.114;14.738;2022-07-29T20:39:32;98382.66;;;27.53;35.58
46476;BME280;53376;51.114;14.738;2022-07-29T20:42:12;98385.56;;;27.51;35.71
46476;BME280;53376;51.114;14.738;2022-07-29T20:44:39;98390.19;;;27.50;35.66
46476;BME280;53376;51.114;14.738;2022-07-29T21:01:16;98377.25;;;27.31;36.21
46476;BME280;53376;51.114;14.738;2022-07-29T21:03:56;98371.19;;;27.29;36.30
46476;BME280;53376;51.114;14.738;2022-07-29T21:06:36;98373.47;;;27.25;36.77
46476;BME280;53376;51.114;14.738;2022-07-29T21:09:03;98370.91;;;27.24;36.55
46476;BME280;53376;51.114;14.738;2022-07-29T21:11:43;98370.47;;;27.20;36.45
46476;BME280;53376;51.114;14.738;2022-07-29T21:14:11;98370.06;;;27.16;36.78
46476;BME280;53376;51.114;14.738;2022-07-29T21:16:53;98365.81;;;27.14;36.89
46476;BME280;53376;51.114;14.738;2022-07-29T21:26:38;98371.66;;;27.04;37.34
46476;BME280;53376;51.114;14.738;2022-07-29T21:29:37;98365.56;;;27.02;37.25
46476;BME280;53376;51.114;14.738;2022-07-29T21:32:06;98373.09;;;27.00;36.97
46476;BME280;53376;51.114;14.738;2022-07-29T21:35:00;98365.94;;;26.99;36.92
46476;BME280;53376;51.114;14.738;2022-07-29T21:37:28;98372.47;;;26.98;37.18
46476;BME280;53376;51.114;14.738;2022-07-29T21:40:10;98370.13;;;26.95;37.19
46476;BME280;53376;51.114;14.738;2022-07-29T21:52:55;98367.38;;;26.88;37.53
46476;BME280;53376;51.114;14.738;2022-07-29T21:55:36;98362.09;;;26.86;37.62
46476;BME280;53376;51.114;14.738;2022-07-29T21:58:17;98358.75;;;26.84;37.47
46476;BME280;53376;51.114;14.738;2022-07-29T22:00:44;98353.66;;;26.81;37.82
46476;BME280;53376;51.114;14.738;2022-07-29T22:03:33;98356.97;;;26.77;37.58
46476;BME280;53376;51.114;14.738;2022-07-29T22:06:06;98362.81;;;26.74;37.52
46476;BME280;53376;51.114;14.738;2022-07-29T22:19:22;98359.78;;;26.62;37.62
46476;BME280;53376;51.114;14.738;2022-07-29T22:22:03;98358.13;;;26.61;37.60
46476;BME280;53376;51.114;14.738;2022-07-29T22:24:30;98358.13;;;26.61;37.85
46476;BME280;53376;51.114;14.738;2022-07-29T22:27:11;98354.53;;;26.60;37.80
46476;BME280;53376;51.114;14.738;2022-07-29T22:29:39;98347.59;;;26.58;37.62
46476;BME280;53376;51.114;14.738;2022-07-29T22:32:19;98354.75;;;26.59;37.67
46476;BME280;53376;51.114;14.738;2022-07-29T22:34:48;98346.31;;;26.53;37.86
46476;BME280;53376;51.114;14.738;2022-07-29T22:47:58;98323.97;;;26.36;38.15
46476;BME280;53376;51.114;14.738;2022-07-29T22:50:41;98318.06;;;26.33;37.66
46476;BME280;53376;51.114;14.738;2022-07-29T22:53:08;98327.03;;;26.27;38.36
46476;BME280;53376;51.114;14.738;2022-07-29T22:55:49;98322.81;;;26.24;38.23
46476;BME280;53376;51.114;14.738;2022-07-29T22:58:16;98322.34;;;26.20;38.07
46476;BME280;53376;51.114;14.738;2022-07-29T23:00:57;98318.34;;;26.16;38.38
46476;BME280;53376;51.114;14.738;2022-07-29T23:13:41;98324.56;;;26.10;38.32
46476;BME280;53376;51.114;14.738;2022-07-29T23:16:21;98320.78;;;26.11;38.74
46476;BME280;53376;51.114;14.738;2022-07-29T23:19:01;98318.94;;;26.12;38.20
46476;BME280;53376;51.114;14.738;2022-07-29T23:21:28;98312.81;;;26.10;38.70
46476;BME280;53376;51.114;14.738;2022-07-29T23:24:08;98315.09;;;26.06;38.67
46476;BME280;53376;51.114;14.738;2022-07-29T23:26:35;98309.66;;;26.06;38.19